Time;durP1;ratioP1;P1;durP2;ratioP2;P2;SDS_P1;SDS_P2;PMS_P1;PMS_P2;Temp;Humidity;BMP_temperature;BMP_pressure;BME280_temperature;BME280_humidity;BME280_pressure;Samples;Min_cycle;Max_cycle;Signal;HPM_P1;HPM_P2
2023/10/12 00:02:27;;;;;;;30.83;15.98;;;;;;;17.60;100.00;101174.38;5025855;28;20104;-62
2023/10/12 00:04:43;;;;;;;32.97;14.52;;;;;;;17.56;100.00;101167.50;5026564;28;20474;-62
2023/10/12 00:09:38;;;;;;;27.85;13.52;;;;;;;17.48;100.00;101180.41;5027022;28;20033;-64
2023/10/12 00:12:10;;;;;;;34.00;13.95;;;;;;;17.45;100.00;101176.13;5026565;28;20341;-64
2023/10/12 00:14:35;;;;;;;37.28;14.05;;;;;;;17.43;100.00;101176.19;5027752;28;20029;-65
2023/10/12 00:17:01;;;;;;;34.95;13.52;;;;;;;17.45;100.00;101173.44;5026723;28;20468;-65
2023/10/12 00:19:27;;;;;;;29.27;13.52;;;;;;;17.43;100.00;101181.53;5027083;28;20034;-62
2023/10/12 00:22:02;;;;;;;28.88;13.23;;;;;;;17.37;100.00;101192.53;5026502;28;20106;-63
2023/10/12 00:24:27;;;;;;;33.58;12.45;;;;;;;17.37;100.00;101184.53;5026951;28;20037;-65
2023/10/12 00:26:53;;;;;;;32.42;11.93;;;;;;;17.31;100.00;101184.91;5026043;28;20029;-64
2023/10/12 00:29:19;;;;;;;27.65;10.23;;;;;;;17.16;100.00;101190.16;5027260;28;20353;-62
2023/10/12 00:31:47;;;;;;;31.95;9.32;;;;;;;17.11;100.00;101205.53;5027470;28;20392;-63
2023/10/12 00:34:14;;;;;;;26.67;8.23;;;;;;;17.00;100.00;101213.22;5027424;28;20433;-65
2023/10/12 00:36:40;;;;;;;24.27;7.55;;;;;;;16.96;100.00;101198.34;5025927;28;20105;-63
2023/10/12 00:39:10;;;;;;;31.23;8.05;;;;;;;16.93;100.00;101197.59;5007817;28;20030;-63
2023/10/12 00:41:44;;;;;;;27.98;7.28;;;;;;;16.80;100.00;101207.19;5007312;28;20093;-61
2023/10/12 00:44:12;;;;;;;28.13;8.10;;;;;;;16.73;100.00;101208.44;5007561;28;20457;-62
2023/10/12 00:51:50;;;;;;;26.45;7.32;;;;;;;16.67;100.00;101204.31;5029869;28;20038;-65
2023/10/12 00:57:10;;;;;;;24.05;7.07;;;;;;;16.62;100.00;101207.22;5029323;28;20033;-65
2023/10/12 00:59:37;;;;;;;18.10;7.05;;;;;;;16.62;100.00;101212.56;5030903;28;20029;-64
2023/10/12 01:02:12;;;;;;;25.67;6.95;;;;;;;16.59;100.00;101222.53;5030218;28;20479;-63
2023/10/12 01:04:41;;;;;;;17.15;5.88;;;;;;;16.58;100.00;101203.03;5097738;22;20057;-65
2023/10/12 01:07:06;;;;;;;22.60;6.85;;;;;;;16.60;100.00;101195.84;5013341;28;20369;-65
2023/10/12 01:10:02;;;;;;;20.20;6.82;;;;;;;16.60;100.00;101193.16;5010952;28;20053;-63
2023/10/12 01:12:30;;;;;;;18.90;6.53;;;;;;;16.58;100.00;101192.38;5008925;28;20026;-63
2023/10/12 01:14:55;;;;;;;26.08;6.95;;;;;;;16.60;100.00;101198.50;5010285;28;20030;-62
2023/10/12 01:17:25;;;;;;;14.98;6.20;;;;;;;16.60;100.00;101192.31;5010793;28;20024;-66
2023/10/12 01:19:51;;;;;;;23.30;7.50;;;;;;;16.63;100.00;101186.81;5010488;28;20404;-64
2023/10/12 01:22:25;;;;;;;32.67;6.68;;;;;;;16.62;100.00;101175.31;5010621;28;20572;-63
2023/10/12 01:27:21;;;;;;;21.35;6.00;;;;;;;16.57;100.00;101166.72;5010131;28;20029;-65
2023/10/12 01:29:47;;;;;;;19.35;6.15;;;;;;;16.58;100.00;101173.75;5010431;28;20525;-65
2023/10/12 01:34:40;;;;;;;16.45;6.18;;;;;;;16.51;100.00;101162.63;5010031;28;20124;-65
2023/10/12 01:37:26;;;;;;;27.67;7.20;;;;;;;16.50;100.00;101168.84;5010768;28;20408;-64
2023/10/12 01:40:12;;;;;;;20.73;6.50;;;;;;;16.50;100.00;101165.34;5009887;28;20025;-66
2023/10/12 01:45:19;;;;;;;22.90;7.32;;;;;;;16.49;100.00;101180.44;5009978;28;20042;-65
2023/10/12 01:47:54;;;;;;;17.33;6.78;;;;;;;16.51;100.00;101180.34;5009989;28;20492;-64
2023/10/12 01:50:19;;;;;;;20.88;7.35;;;;;;;16.51;100.00;101177.69;5010010;28;20037;-64
2023/10/12 01:52:46;;;;;;;15.95;7.35;;;;;;;16.49;100.00;101174.25;5009884;28;20029;-66
2023/10/12 01:55:30;;;;;;;20.48;7.70;;;;;;;16.51;100.00;101169.72;5010242;28;20388;-65
2023/10/12 01:57:59;;;;;;;26.15;7.72;;;;;;;16.51;100.00;101159.09;5009139;28;20542;-65
2023/10/12 02:00:27;;;;;;;24.05;7.90;;;;;;;16.41;100.00;101151.59;5010192;28;20022;-64
2023/10/12 02:05:37;;;;;;;20.02;7.28;;;;;;;16.39;100.00;101168.56;5009951;28;20084;-65
2023/10/12 02:08:05;;;;;;;20.67;8.05;;;;;;;16.42;100.00;101166.63;5009841;28;20046;-65
2023/10/12 02:10:41;;;;;;;22.40;8.00;;;;;;;16.44;100.00;101165.69;5010760;28;20042;-66
2023/10/12 02:13:07;;;;;;;19.30;7.55;;;;;;;16.43;100.00;101159.50;5009449;28;20595;-65
2023/10/12 02:15:32;;;;;;;25.67;7.50;;;;;;;16.43;100.00;101154.16;5009629;28;20113;-65
2023/10/12 02:17:59;;;;;;;26.00;7.90;;;;;;;16.39;100.00;101158.81;5010412;28;20022;-65
2023/10/12 02:20:32;;;;;;;24.20;8.18;;;;;;;16.36;100.00;101161.63;5009949;28;20064;-65
2023/10/12 02:23:01;;;;;;;19.25;7.47;;;;;;;16.38;100.00;101161.56;5010252;28;20101;-63
2023/10/12 02:25:27;;;;;;;;;;;;;;;16.41;100.00;101166.72;5009982;28;20113;-64
2023/10/12 02:27:56;;;;;;;19.45;7.22;;;;;;;16.39;100.00;101157.94;5008558;28;20012;-65
2023/10/12 02:30:27;;;;;;;20.10;7.85;;;;;;;16.40;100.00;101136.59;5008880;28;20018;-65
2023/10/12 02:33:00;;;;;;;19.73;7.93;;;;;;;16.34;100.00;101126.28;5008822;28;20033;-65
2023/10/12 02:35:36;;;;;;;18.05;7.30;;;;;;;16.27;100.00;101138.19;5008949;28;20022;-63
2023/10/12 02:38:04;;;;;;;25.02;8.32;;;;;;;16.26;100.00;101142.63;5009246;28;20043;-64
2023/10/12 02:40:32;;;;;;;22.50;8.48;;;;;;;16.22;100.00;101140.25;5009032;28;20022;-64
2023/10/12 02:42:59;;;;;;;24.55;7.75;;;;;;;16.24;100.00;101133.03;5008882;28;20034;-65
2023/10/12 02:45:27;;;;;;;20.25;7.50;;;;;;;16.25;100.00;101146.25;5008993;28;20029;-64
2023/10/12 02:47:52;;;;;;;22.85;7.55;;;;;;;16.28;100.00;101147.88;5008854;28;20026;-65
2023/10/12 02:50:28;;;;;;;29.33;8.20;;;;;;;16.29;100.00;101150.44;5008882;28;20088;-64
2023/10/12 02:52:54;;;;;;;20.90;7.82;;;;;;;16.32;100.00;101145.91;5008639;28;20113;-64
2023/10/12 02:57:56;;;;;;;15.73;7.60;;;;;;;16.27;100.00;101159.47;5008356;28;20679;-64
2023/10/12 03:00:31;;;;;;;17.70;7.10;;;;;;;16.31;100.00;101161.00;5007655;28;20509;-64
2023/10/12 03:03:05;;;;;;;24.38;8.05;;;;;;;16.29;100.00;101152.28;5007105;28;20669;-64
2023/10/12 03:05:32;;;;;;;21.67;7.80;;;;;;;16.33;100.00;101148.50;5009026;28;20046;-65
2023/10/12 03:08:06;;;;;;;25.50;8.00;;;;;;;16.28;100.00;101148.75;5015822;28;20031;-64
2023/10/12 03:10:31;;;;;;;19.83;8.13;;;;;;;16.32;100.00;101162.75;5027775;28;20076;-65
2023/10/12 03:13:04;;;;;;;28.67;9.30;;;;;;;16.35;100.00;101162.59;5026583;28;20057;-65
2023/10/12 03:15:41;;;;;;;20.50;7.90;;;;;;;16.37;100.00;101150.03;5027837;28;20028;-65
2023/10/12 03:18:11;;;;;;;22.35;8.30;;;;;;;16.37;100.00;101142.06;5046909;28;20534;-64
2023/10/12 03:20:37;;;;;;;21.50;8.65;;;;;;;16.32;100.00;101149.44;5047297;28;20107;-64
2023/10/12 03:23:12;;;;;;;23.75;8.93;;;;;;;16.31;100.00;101150.38;5047754;28;20052;-64
2023/10/12 03:25:51;;;;;;;24.27;9.57;;;;;;;16.30;100.00;101156.63;5047712;28;20048;-64
2023/10/12 03:28:43;;;;;;;25.33;9.32;;;;;;;16.31;100.00;101161.00;5047358;28;20025;-66
2023/10/12 03:31:23;;;;;;;24.95;9.15;;;;;;;16.35;100.00;101162.59;5038952;28;20036;-64
2023/10/12 03:33:54;;;;;;;24.73;10.52;;;;;;;16.32;100.00;101161.88;5027064;28;20049;-64
2023/10/12 03:36:25;;;;;;;25.42;9.32;;;;;;;16.34;100.00;101175.97;5027403;28;20468;-63
2023/10/12 03:39:14;;;;;;;29.20;10.52;;;;;;;16.32;100.00;101178.69;5027487;28;20022;-64
2023/10/12 03:45:07;;;;;;;25.27;9.05;;;;;;;16.45;100.00;101172.69;5026888;28;20045;-62
2023/10/12 03:47:15;;;;;;;23.25;8.95;;;;;;;16.45;100.00;101170.03;5030312;28;20041;-63
2023/10/12 03:52:19;;;;;;;28.33;10.15;;;;;;;16.52;100.00;101179.41;5027157;28;20112;-64
2023/10/12 03:57:39;;;;;;;19.58;8.05;;;;;;;16.50;100.00;101178.66;5026799;28;20380;-64
2023/10/12 04:05:35;;;;;;;18.58;6.60;;;;;;;16.53;100.00;101184.66;5027091;28;20049;-64
2023/10/12 04:08:01;;;;;;;14.25;6.43;;;;;;;16.47;100.00;101182.34;5028333;28;20104;-63
2023/10/12 04:13:55;;;;;;;15.75;5.40;;;;;;;16.52;100.00;101179.41;5026975;28;20396;-64
2023/10/12 04:16:27;;;;;;;12.75;4.97;;;;;;;16.49;100.00;101185.75;5027607;28;20041;-64
2023/10/12 04:21:23;;;;;;;11.60;5.47;;;;;;;16.42;100.00;101187.91;5027532;28;20072;-64
2023/10/12 04:29:08;;;;;;;10.80;5.30;;;;;;;16.31;100.00;101200.88;5051208;28;20112;-63
2023/10/12 04:31:56;;;;;;;7.13;5.18;;;;;;;16.16;100.00;101206.06;5051048;28;20025;-63
2023/10/12 04:34:27;;;;;;;9.93;5.90;;;;;;;16.01;100.00;101213.03;5051240;28;20021;-64
2023/10/12 04:37:11;;;;;;;8.23;5.05;;;;;;;15.95;100.00;101215.13;5032559;28;20656;-63
2023/10/12 04:39:37;;;;;;;11.30;4.72;;;;;;;15.86;100.00;101217.28;5030378;28;20057;-63
2023/10/12 04:42:12;;;;;;;3.65;3.22;;;;;;;15.73;100.00;101203.78;5030301;28;20064;-63
2023/10/12 04:44:43;;;;;;;2.38;2.17;;;;;;;15.59;100.00;101212.41;5029473;28;20036;-65
2023/10/12 04:47:15;;;;;;;3.10;2.15;;;;;;;15.43;100.00;101222.06;5029911;28;20064;-62
2023/10/12 04:57:16;;;;;;;4.75;1.98;;;;;;;14.98;100.00;101231.22;5009865;28;20038;-63
2023/10/12 05:00:00;;;;;;;3.25;2.00;;;;;;;14.90;100.00;101236.88;5010413;28;20038;-62
2023/10/12 05:02:30;;;;;;;2.65;1.90;;;;;;;14.86;100.00;101240.59;5010778;28;20030;-62
2023/10/12 05:09:49;;;;;;;2.80;2.15;;;;;;;14.48;100.00;101251.97;5029749;28;20117;-65
2023/10/12 05:12:24;;;;;;;;;;;;;;;14.36;100.00;101245.41;5030244;28;20455;-63
2023/10/12 05:14:55;;;;;;;3.15;2.35;;;;;;;14.34;100.00;101247.28;5029439;28;19963;-62
2023/10/12 05:17:24;;;;;;;2.45;2.00;;;;;;;14.20;100.00;101249.63;5029289;28;20446;-62
2023/10/12 05:19:52;;;;;;;;;;;;;;;14.21;100.00;101249.56;5029645;28;20043;-62
2023/10/12 05:22:20;;;;;;;5.40;2.90;;;;;;;14.12;100.00;101253.47;5030192;28;20295;-63
2023/10/12 05:24:49;;;;;;;4.70;2.80;;;;;;;14.08;100.00;101257.19;5035020;28;20025;-62
2023/10/12 05:27:24;;;;;;;5.38;3.40;;;;;;;14.12;100.00;101261.44;5026586;28;20294;-63
2023/10/12 05:29:59;;;;;;;4.88;3.00;;;;;;;14.17;100.00;101268.34;5025114;28;20372;-64
2023/10/12 05:32:36;;;;;;;5.05;3.05;;;;;;;14.10;100.00;101268.59;5015937;28;20115;-63
2023/10/12 05:35:05;;;;;;;4.18;3.22;;;;;;;14.06;100.00;101269.63;5028527;28;20121;-62
2023/10/12 05:37:38;;;;;;;4.20;2.70;;;;;;;14.03;100.00;101273.28;5028129;28;20021;-64
2023/10/12 05:40:10;;;;;;;5.55;2.88;;;;;;;14.11;100.00;101278.25;5028675;28;20039;-62
2023/10/12 05:42:39;;;;;;;8.63;2.92;;;;;;;13.97;100.00;101273.53;5026969;28;20036;-62
2023/10/12 05:47:44;;;;;;;6.80;2.83;;;;;;;13.89;100.00;101270.34;5028595;28;20484;-67
2023/10/12 05:50:15;;;;;;;11.10;3.10;;;;;;;13.85;100.00;101274.91;5029777;28;20025;-63
2023/10/12 05:52:40;;;;;;;7.43;2.92;;;;;;;13.81;100.00;101278.59;5029105;28;20029;-63
2023/10/12 05:55:20;;;;;;;12.25;3.15;;;;;;;13.80;100.00;101278.66;5029412;28;20627;-64
2023/10/12 05:57:48;;;;;;;9.95;3.13;;;;;;;13.75;100.00;101284.13;5025972;28;20022;-63
2023/10/12 06:00:18;;;;;;;12.15;3.08;;;;;;;13.72;100.00;101279.84;5027524;28;20030;-64
2023/10/12 06:02:44;;;;;;;9.02;2.53;;;;;;;13.72;100.00;101279.84;5029021;28;20033;-64
2023/10/12 06:05:12;;;;;;;6.72;2.88;;;;;;;13.71;100.00;101286.06;5028075;28;20068;-61
2023/10/12 06:07:37;;;;;;;12.77;2.47;;;;;;;13.71;100.00;101287.84;5019530;28;20539;-63
2023/10/12 06:10:09;;;;;;;8.85;2.50;;;;;;;13.75;100.00;101289.44;5026390;28;20037;-64
2023/10/12 06:12:35;;;;;;;11.32;2.65;;;;;;;13.81;100.00;101291.84;5027175;28;20445;-62
2023/10/12 06:15:00;;;;;;;5.97;2.05;;;;;;;13.76;100.00;101297.31;5027766;28;20104;-64
2023/10/12 06:17:39;;;;;;;12.25;2.67;;;;;;;13.78;100.00;101299.91;5025710;28;20416;-64
2023/10/12 06:20:13;;;;;;;9.35;2.17;;;;;;;13.84;100.00;101304.09;5025237;28;20025;-64
2023/10/12 06:22:38;;;;;;;9.60;2.58;;;;;;;13.81;100.00;101299.78;5025308;28;20059;-63
2023/10/12 06:25:11;;;;;;;6.38;2.42;;;;;;;13.76;100.00;101296.47;5027329;28;20400;-62
2023/10/12 06:27:37;;;;;;;6.85;2.58;;;;;;;13.84;100.00;101306.75;5026114;28;20032;-63
2023/10/12 06:30:16;;;;;;;8.55;2.75;;;;;;;13.90;100.00;101304.72;5027361;28;20480;-63
2023/10/12 06:32:42;;;;;;;13.73;2.47;;;;;;;13.96;100.00;101308.91;5022633;28;20416;-64
2023/10/12 06:45:47;;;;;;;10.23;2.60;;;;;;;13.92;100.00;101319.69;5026737;28;20387;-65
2023/10/12 06:53:36;;;;;;;6.82;2.90;;;;;;;14.01;100.00;101335.22;5027551;28;20037;-62
2023/10/12 06:58:46;;;;;;;7.68;3.50;;;;;;;14.12;100.00;101340.94;5026787;28;20053;-62
2023/10/12 07:01:18;;;;;;;9.02;3.63;;;;;;;14.11;100.00;101341.88;5026148;28;20407;-63
2023/10/12 07:03:48;;;;;;;7.78;3.35;;;;;;;14.12;100.00;101346.22;5026814;28;20037;-64
2023/10/12 07:06:17;;;;;;;7.45;3.63;;;;;;;14.13;100.00;101347.97;5026240;28;20453;-64
2023/10/12 07:08:43;;;;;;;;;;;;;;;14.09;100.00;101351.66;5025161;28;20049;-64
2023/10/12 07:11:11;;;;;;;6.07;4.28;;;;;;;14.19;100.00;101354.81;5026437;28;19908;-65
2023/10/12 07:13:39;;;;;;;6.90;4.10;;;;;;;14.23;100.00;101359.03;5027338;28;20044;-66
2023/10/12 07:16:08;;;;;;;8.43;4.50;;;;;;;14.23;100.00;101350.22;5026015;28;20030;-65
2023/10/12 07:18:34;;;;;;;8.70;4.28;;;;;;;14.13;100.00;101355.94;5018645;28;20034;-66
2023/10/12 07:21:00;;;;;;;7.85;4.55;;;;;;;14.21;100.00;101349.44;5018073;28;20098;-66
2023/10/12 07:23:35;;;;;;;9.35;4.38;;;;;;;14.20;100.00;101348.56;5015693;28;20476;-68
2023/10/12 07:26:06;;;;;;;7.13;4.38;;;;;;;14.30;100.00;101348.19;5016548;28;20050;-67
2023/10/12 07:28:36;;;;;;;8.05;4.70;;;;;;;14.31;100.00;101361.38;5015624;28;20081;-63
2023/10/12 07:34:23;;;;;;;8.48;4.22;;;;;;;14.43;100.00;101375.91;5017011;28;20018;-66
2023/10/12 07:39:27;;;;;;;7.25;4.20;;;;;;;14.32;100.00;101383.44;5017502;28;20109;-67
2023/10/12 07:42:01;;;;;;;10.05;5.07;;;;;;;14.35;100.00;101383.31;5016374;28;20765;-65
2023/10/12 07:44:27;;;;;;;8.35;4.70;;;;;;;14.37;100.00;101373.53;5022508;28;20029;-63
2023/10/12 07:46:56;;;;;;;10.70;4.35;;;;;;;14.47;100.00;101374.84;5026370;28;20073;-64
2023/10/12 07:57:19;;;;;;;7.63;4.30;;;;;;;14.48;100.00;101375.72;5024304;28;20033;-63
2023/10/12 08:05:42;;;;;;;22.73;4.75;;;;;;;14.45;100.00;101378.50;5030375;28;20448;-65
2023/10/12 08:13:06;;;;;;;8.98;5.05;;;;;;;14.63;100.00;101366.28;5029264;28;20037;-65
2023/10/12 08:15:49;;;;;;;8.65;4.97;;;;;;;14.71;100.00;101374.75;5030774;28;20117;-64
2023/10/12 08:19:08;;;;;;;11.95;4.55;;;;;;;14.72;100.00;101375.63;5028815;28;20017;-63
2023/10/12 08:21:01;;;;;;;7.05;3.90;;;;;;;14.87;100.00;101384.75;5028404;28;20506;-64
2023/10/12 08:23:27;;;;;;;5.57;3.47;;;;;;;14.96;100.00;101391.44;5028708;28;20033;-65
2023/10/12 08:25:57;;;;;;;5.65;3.05;;;;;;;15.01;100.00;101385.00;5027514;28;20372;-64
2023/10/12 08:28:25;;;;;;;6.40;2.67;;;;;;;15.13;100.00;101385.38;5028542;28;20124;-63
2023/10/12 08:31:00;;;;;;;3.80;2.50;;;;;;;15.09;100.00;101389.97;5028315;28;20025;-63
2023/10/12 08:38:52;;;;;;;4.57;2.13;;;;;;;15.31;100.00;101396.97;5030027;28;20112;-65
2023/10/12 08:41:21;;;;;;;4.60;2.00;;;;;;;15.34;100.00;101394.16;5028647;28;20025;-62
2023/10/12 08:43:48;;;;;;;4.57;2.15;;;;;;;15.37;100.00;101404.66;5029455;28;20118;-65
2023/10/12 08:46:37;;;;;;;6.03;1.63;;;;;;;15.50;100.00;101404.09;5029376;28;20021;-64
2023/10/12 08:49:33;;;;;;;4.57;1.70;;;;;;;15.44;100.00;101407.03;5030115;28;20026;-63
2023/10/12 08:52:04;;;;;;;4.57;1.80;;;;;;;15.45;100.00;101406.09;5028739;28;20072;-65
2023/10/12 08:54:33;;;;;;;5.75;2.25;;;;;;;15.42;100.00;101399.13;5029804;28;20388;-65
2023/10/12 08:57:01;;;;;;;2.95;1.70;;;;;;;15.45;100.00;101395.47;5028447;28;20380;-64
2023/10/12 08:59:29;;;;;;;2.40;1.88;;;;;;;15.37;100.00;101399.34;5028494;28;20053;-64
2023/10/12 09:02:03;;;;;;;3.20;2.30;;;;;;;15.32;100.00;101393.34;5028327;28;20041;-65
2023/10/12 09:04:29;;;;;;;2.70;2.30;;;;;;;15.36;100.00;101397.63;5029485;28;20464;-65
2023/10/12 09:06:56;;;;;;;2.92;2.63;;;;;;;15.27;100.00;101395.38;5026078;28;20463;-65
2023/10/12 09:10:28;;;;;;;3.00;2.70;;;;;;;15.19;100.00;101379.78;5029875;28;20018;-65
2023/10/12 09:12:13;;;;;;;3.85;2.95;;;;;;;14.93;100.00;101355.25;5024935;28;20029;-64
2023/10/12 09:14:43;;;;;;;3.38;2.53;;;;;;;14.91;100.00;101360.63;5029297;28;20025;-65
2023/10/12 09:17:20;;;;;;;5.85;2.83;;;;;;;15.00;100.00;101363.84;5029302;28;20021;-64
2023/10/12 09:19:47;;;;;;;4.15;2.80;;;;;;;15.14;100.00;101361.41;5028314;28;20091;-63
2023/10/12 09:22:12;;;;;;;5.40;3.35;;;;;;;15.03;100.00;101364.53;5029097;28;20032;-64
2023/10/12 09:24:37;;;;;;;3.95;3.10;;;;;;;15.12;100.00;101367.72;5028709;28;20329;-63
2023/10/12 09:27:12;;;;;;;5.15;3.63;;;;;;;15.24;100.00;101363.66;5018104;28;20144;-65
2023/10/12 09:32:46;;;;;;;3.88;3.40;;;;;;;15.33;100.00;101367.69;5014354;28;20033;-63
2023/10/12 09:35:13;;;;;;;2.97;2.78;;;;;;;15.31;100.00;101358.91;5027635;28;20068;-64
2023/10/12 09:37:45;;;;;;;3.40;3.00;;;;;;;15.45;100.00;101353.84;5025824;28;20030;-64
2023/10/12 09:40:24;;;;;;;3.08;2.78;;;;;;;15.32;100.00;101353.53;5022589;28;20032;-64
2023/10/12 09:42:54;;;;;;;5.57;2.75;;;;;;;15.40;100.00;101355.84;5027834;28;20072;-65
2023/10/12 09:45:24;;;;;;;3.00;2.70;;;;;;;15.38;100.00;101345.28;5028859;28;20022;-64
2023/10/12 09:47:55;;;;;;;3.10;2.72;;;;;;;15.37;100.00;101342.72;5029071;28;20376;-65
2023/10/12 09:50:27;;;;;;;3.90;2.80;;;;;;;15.27;100.00;101348.44;5026850;28;20068;-67
2023/10/12 09:53:12;;;;;;;2.97;2.60;;;;;;;15.22;100.00;101342.50;5028879;28;20110;-65
2023/10/12 09:55:38;;;;;;;4.32;2.95;;;;;;;15.23;100.00;101346.03;5025685;28;20029;-64
2023/10/12 09:58:22;;;;;;;3.30;3.00;;;;;;;15.32;100.00;101334.94;5028860;28;20045;-68
2023/10/12 10:03:42;;;;;;;3.90;3.00;;;;;;;15.30;100.00;101328.88;5028193;28;20091;-64
2023/10/12 10:06:19;;;;;;;4.57;3.30;;;;;;;15.27;100.00;101327.19;5027603;28;20033;-64
2023/10/12 10:08:53;;;;;;;4.10;3.33;;;;;;;15.24;100.00;101318.53;5027026;28;20025;-65
2023/10/12 10:11:26;;;;;;;3.40;3.10;;;;;;;15.36;100.00;101323.28;5026506;28;20095;-64
2023/10/12 10:13:53;;;;;;;4.85;3.00;;;;;;;15.46;100.00;101321.03;5026612;28;20026;-64
2023/10/12 10:16:20;;;;;;;3.85;3.00;;;;;;;15.34;100.00;101325.13;5028141;28;20026;-66
2023/10/12 10:18:49;;;;;;;4.68;3.30;;;;;;;15.41;100.00;101321.25;5027454;28;20026;-66
2023/10/12 10:21:22;;;;;;;4.35;2.92;;;;;;;15.48;100.00;101307.69;5027658;28;20025;-63
2023/10/12 10:23:52;;;;;;;3.40;3.10;;;;;;;15.63;100.00;101308.75;5026274;28;20033;-63
2023/10/12 10:26:40;;;;;;;4.28;3.00;;;;;;;15.73;100.00;101303.84;5026720;28;20301;-65
2023/10/12 10:29:05;;;;;;;4.15;2.83;;;;;;;15.92;100.00;101295.84;5026774;28;20061;-64
2023/10/12 10:31:41;;;;;;;5.95;3.10;;;;;;;16.00;100.00;101301.69;5028488;28;20431;-65
2023/10/12 10:34:06;;;;;;;4.10;2.97;;;;;;;16.10;100.00;101294.09;5026973;28;20048;-64
2023/10/12 10:36:34;;;;;;;3.17;2.88;;;;;;;16.15;100.00;101297.41;5028375;28;20017;-63
2023/10/12 10:39:04;;;;;;;3.80;3.30;;;;;;;16.09;100.00;101292.41;5027851;28;20024;-65
2023/10/12 10:41:42;;;;;;;3.38;3.08;;;;;;;16.08;100.00;101296.00;5027168;28;20021;-66
2023/10/12 10:44:15;;;;;;;4.18;3.35;;;;;;;16.10;100.00;101286.13;5027892;28;20112;-66
2023/10/12 10:46:44;;;;;;;3.28;2.97;;;;;;;16.23;100.00;101288.19;5027436;28;20026;-64
2023/10/12 10:49:15;;;;;;;4.72;3.72;;;;;;;16.34;100.00;101292.97;5027149;28;20033;-66
2023/10/12 10:51:43;;;;;;;4.05;3.53;;;;;;;16.31;100.00;101288.63;5027195;28;20017;-65
2023/10/12 10:54:18;;;;;;;4.45;3.65;;;;;;;16.21;100.00;101292.69;5027466;28;20028;-66
2023/10/12 10:56:47;;;;;;;6.50;4.60;;;;;;;16.11;100.00;101287.88;5026558;28;20036;-65
2023/10/12 10:59:13;;;;;;;4.05;3.40;;;;;;;16.16;100.00;101287.63;5026909;28;20032;-66
2023/10/12 11:01:52;;;;;;;6.78;4.15;;;;;;;16.15;100.00;101284.13;5027556;28;20219;-65
2023/10/12 11:07:02;;;;;;;8.15;5.20;;;;;;;16.04;100.00;101286.44;5026817;28;20029;-66
2023/10/12 11:09:31;;;;;;;8.55;5.90;;;;;;;15.97;100.00;101285.03;5027145;28;20017;-64
2023/10/12 11:11:59;;;;;;;8.40;5.95;;;;;;;15.99;100.00;101285.81;5026822;28;20083;-65
2023/10/12 11:14:24;;;;;;;7.18;6.45;;;;;;;16.00;100.00;101279.56;5020068;28;20595;-64
2023/10/12 11:16:51;;;;;;;10.70;6.57;;;;;;;15.92;100.00;101279.91;5018622;28;20052;-66
2023/10/12 11:19:19;;;;;;;8.23;6.47;;;;;;;15.95;100.00;101281.56;5015196;28;20076;-65
2023/10/12 11:21:53;;;;;;;9.38;6.82;;;;;;;15.96;100.00;101278.88;5021234;28;20025;-64
2023/10/12 11:24:20;;;;;;;9.35;7.07;;;;;;;15.95;100.00;101265.63;5026561;28;20108;-64
2023/10/12 11:26:57;;;;;;;7.45;6.70;;;;;;;16.00;100.00;101267.13;5022185;28;20030;-64
2023/10/12 11:29:24;;;;;;;9.23;6.95;;;;;;;16.04;100.00;101268.69;5017695;28;20062;-64
2023/10/12 11:32:09;;;;;;;7.35;6.53;;;;;;;16.14;100.00;101258.44;5014755;28;20033;-66
2023/10/12 11:34:44;;;;;;;8.15;6.82;;;;;;;16.18;100.00;101251.19;5015755;28;20108;-66
2023/10/12 11:37:13;;;;;;;10.15;6.95;;;;;;;16.11;100.00;101266.59;5014107;28;20488;-61
2023/10/12 11:39:49;;;;;;;8.70;7.45;;;;;;;16.03;100.00;101261.66;5007523;28;20038;-63
2023/10/12 11:42:14;;;;;;;12.98;6.90;;;;;;;15.98;100.00;101250.41;5018408;28;20045;-65
2023/10/12 11:44:45;;;;;;;10.02;7.75;;;;;;;15.98;100.00;101253.06;5026182;28;20484;-63
2023/10/12 11:47:16;;;;;;;15.57;9.50;;;;;;;16.05;100.00;101245.66;5025387;28;20476;-63
2023/10/12 11:49:55;;;;;;;14.23;9.00;;;;;;;16.00;100.00;101237.91;5026410;28;20098;-62
2023/10/12 11:52:30;;;;;;;;;;;;;;;16.12;100.00;101228.44;5012266;28;20034;-65
2023/10/12 11:55:18;;;;;;;12.60;8.07;;;;;;;16.03;100.00;101232.44;5006659;28;19913;-65
2023/10/12 11:57:54;;;;;;;14.80;9.32;;;;;;;16.03;100.00;101224.47;5006716;28;20698;-64
2023/10/12 12:02:46;;;;;;;14.38;9.20;;;;;;;16.07;100.00;101233.13;5046814;28;20061;-64
2023/10/12 12:05:12;;;;;;;13.48;10.07;;;;;;;16.10;100.00;101224.16;5045535;28;20041;-64
2023/10/12 12:07:37;;;;;;;12.35;8.80;;;;;;;16.19;100.00;101213.03;5046800;28;20023;-64
2023/10/12 12:10:06;;;;;;;12.05;8.77;;;;;;;16.19;100.00;101221.00;5046411;28;20436;-63
2023/10/12 12:12:31;;;;;;;13.05;10.10;;;;;;;16.21;100.00;101220.91;5046733;28;20048;-63
2023/10/12 12:14:56;;;;;;;15.25;10.95;;;;;;;16.27;100.00;101221.47;5047702;28;20483;-64
2023/10/12 12:17:25;;;;;;;18.92;11.82;;;;;;;16.29;100.00;101216.09;5047575;28;20035;-63
2023/10/12 12:19:51;;;;;;;17.05;12.02;;;;;;;16.31;100.00;101219.50;5039940;28;20029;-63
2023/10/12 12:22:16;;;;;;;23.08;11.55;;;;;;;16.34;100.00;101215.84;5027001;28;20025;-64
2023/10/12 12:24:44;;;;;;;24.70;12.20;;;;;;;16.40;100.00;101223.47;5026179;28;20486;-64
2023/10/12 12:29:54;;;;;;;24.50;12.60;;;;;;;16.50;100.00;101231.84;5026230;28;20056;-63
2023/10/12 12:32:20;;;;;;;22.25;13.52;;;;;;;16.52;100.00;101237.94;5026476;28;20025;-63
2023/10/12 12:34:47;;;;;;;27.45;15.43;;;;;;;16.48;100.00;101244.34;5023980;28;20025;-64
2023/10/12 12:37:16;;;;;;;25.88;14.73;;;;;;;16.47;100.00;101259.47;5026978;28;20048;-64
2023/10/12 12:39:42;;;;;;;20.17;13.77;;;;;;;16.59;100.00;101273.94;5024970;28;20035;-63
2023/10/12 12:42:11;;;;;;;26.35;15.23;;;;;;;16.61;100.00;101281.81;5025784;28;20607;-63
2023/10/12 12:44:37;;;;;;;13.48;7.85;;;;;;;16.31;100.00;101246.09;5028516;28;20360;-64
2023/10/12 12:47:06;;;;;;;8.02;5.93;;;;;;;16.04;100.00;101233.28;5029868;28;20037;-65
2023/10/12 12:49:31;;;;;;;3.72;2.40;;;;;;;15.94;100.00;101238.19;5028710;28;20025;-64
2023/10/12 12:52:00;;;;;;;5.63;1.92;;;;;;;16.14;100.00;101229.22;5029004;28;20033;-64
2023/10/12 12:54:25;;;;;;;9.45;2.67;;;;;;;16.32;100.00;101231.00;5029576;28;20407;-63
2023/10/12 12:56:53;;;;;;;12.02;5.05;;;;;;;16.30;100.00;101225.75;5027427;28;20030;-64
2023/10/12 12:59:21;;;;;;;9.88;4.75;;;;;;;16.27;100.00;101224.13;5030235;28;20025;-63
2023/10/12 13:01:46;;;;;;;8.45;3.78;;;;;;;16.17;100.00;101210.44;5029054;28;20468;-64
2023/10/12 13:04:14;;;;;;;6.13;3.45;;;;;;;16.23;100.00;101211.94;5029036;28;20064;-64
2023/10/12 13:06:39;;;;;;;7.35;3.38;;;;;;;16.21;100.00;101210.28;5025692;28;20534;-62
2023/10/12 13:09:05;;;;;;;7.38;2.78;;;;;;;16.19;100.00;101221.00;5021654;28;20026;-63
2023/10/12 13:11:30;;;;;;;6.18;3.30;;;;;;;16.23;100.00;101233.22;5030209;28;20448;-64
2023/10/12 13:13:55;;;;;;;9.50;3.13;;;;;;;16.26;100.00;101211.75;5026631;28;20033;-63
2023/10/12 13:16:20;;;;;;;4.47;2.75;;;;;;;16.25;100.00;101203.88;5025055;28;20025;-63
2023/10/12 13:18:46;;;;;;;7.68;3.20;;;;;;;16.35;100.00;101180.31;5019805;28;20017;-63
2023/10/12 13:21:14;;;;;;;7.90;3.90;;;;;;;16.43;100.00;101143.53;5019861;28;20026;-62
2023/10/12 13:23:40;;;;;;;20.23;4.55;;;;;;;16.61;100.00;101146.13;5012235;28;20073;-69
2023/10/12 13:26:17;;;;;;;7.78;5.22;;;;;;;16.74;100.00;101147.16;5019681;28;20026;-63
2023/10/12 13:28:42;;;;;;;8.82;5.70;;;;;;;16.84;100.00;101152.84;5023540;28;20115;-62
2023/10/12 13:31:13;;;;;;;10.27;5.40;;;;;;;17.04;100.00;101156.22;5028218;28;20575;-64
2023/10/12 13:33:41;;;;;;;8.90;5.60;;;;;;;17.11;100.00;101162.94;5022914;28;20057;-63
2023/10/12 13:36:08;;;;;;;10.93;6.88;;;;;;;17.20;100.00;101164.22;5017676;28;20029;-66